Time;durP1;ratioP1;P1;durP2;ratioP2;P2;SDS_P1;SDS_P2;PMS_P1;PMS_P2;Temp;Humidity;BMP_temperature;BMP_pressure;BME280_temperature;BME280_humidity;BME280_pressure;Samples;Min_cycle;Max_cycle;Signal;HPM_P1;HPM_P2
2022/09/23 06:38:33;;;;;;;9.69;3.42;;;;;;;9.08;70.95;96664.16;4220565;27;1223023;-66
2022/09/23 06:39:38;;;;;;;35.75;4.90;;;;;;;9.05;71.41;96668.63;2104892;27;20567;-66
2022/09/23 06:40:39;;;;;;;12.32;4.15;;;;;;;9.18;71.36;96672.47;2102634;28;20285;-67
2022/09/23 06:52:22;;;;;;;16.05;3.45;;;;;;;10.88;69.68;96670.63;2091277;27;21298;-66
2022/09/23 06:53:24;;;;;;;16.80;3.30;;;;;;;11.16;68.61;96668.50;2087785;28;20291;-68
2022/09/23 06:54:29;;;;;;;14.05;3.05;;;;;;;11.44;67.88;96663.66;2086348;28;20197;-68
2022/09/23 06:55:31;;;;;;;32.40;4.35;;;;;;;11.36;67.52;96657.94;2066443;28;20256;-68
2022/09/23 06:56:33;;;;;;;18.17;4.38;;;;;;;11.82;67.02;96662.72;2077626;28;20292;-66
2022/09/23 07:04:56;;;;;;;14.45;3.83;;;;;;;13.41;61.23;96671.97;2079413;28;20627;-66
2022/09/23 07:05:59;;;;;;;29.50;4.18;;;;;;;13.77;60.00;96670.81;2095351;28;20278;-66
2022/09/23 07:07:00;;;;;;;33.53;3.70;;;;;;;13.52;59.67;96663.50;2086629;28;20300;-66
2022/09/23 07:08:02;;;;;;;23.75;4.35;;;;;;;13.66;60.29;96660.97;2082690;28;20666;-66
2022/09/23 07:20:48;;;;;;;13.13;7.13;;;;;;;14.54;56.78;96665.50;2058823;27;1254075;-66
2022/09/23 07:21:53;;;;;;;19.15;7.82;;;;;;;14.34;57.10;96677.19;2103431;28;21021;-66
2022/09/23 07:22:55;;;;;;;19.60;7.85;;;;;;;14.51;57.62;96679.66;2103240;28;20226;-66
2022/09/23 07:23:56;;;;;;;15.10;7.18;;;;;;;14.82;56.87;96682.25;2099557;28;20414;-66
2022/09/23 07:24:58;;;;;;;18.95;7.82;;;;;;;14.37;57.41;96675.22;2092608;28;20662;-66
2022/09/23 07:26:00;;;;;;;11.73;6.00;;;;;;;14.11;57.72;96676.75;2102683;28;20342;-66
2022/09/23 07:27:01;;;;;;;8.80;4.97;;;;;;;14.46;56.88;96678.22;2099763;28;20286;-66
2022/09/23 07:28:04;;;;;;;20.75;5.95;;;;;;;14.61;57.01;96682.56;2098751;28;20657;-66
2022/09/23 07:39:10;;;;;;;5.45;3.70;;;;;;;14.78;55.07;96680.72;2071985;27;1246973;-66
2022/09/23 07:40:11;;;;;;;11.00;3.20;;;;;;;14.57;55.63;96680.22;2090294;28;20231;-66
2022/09/23 07:41:18;;;;;;;15.10;3.53;;;;;;;14.22;56.01;96626.25;2090278;28;20192;-68
2022/09/23 07:42:19;;;;;;;10.00;2.88;;;;;;;14.76;56.05;96683.47;2090690;28;20200;-68
2022/09/23 07:43:21;;;;;;;8.45;2.53;;;;;;;14.83;55.68;96687.41;2090165;28;20732;-68
2022/09/23 07:44:22;;;;;;;15.18;3.17;;;;;;;14.83;55.80;96682.16;2089404;28;20279;-68
2022/09/23 07:57:03;;;;;;;7.13;2.80;;;;;;;15.04;56.91;96683.56;2070469;27;1255769;-67
2022/09/23 07:58:04;;;;;;;5.70;2.50;;;;;;;14.96;56.12;96676.16;2108994;28;20254;-66
2022/09/23 07:59:07;;;;;;;8.50;2.90;;;;;;;15.23;56.27;96684.09;2106744;28;20745;-66
2022/09/23 08:00:13;;;;;;;4.60;2.40;;;;;;;14.16;58.67;96673.88;2107407;27;20661;-66
2022/09/23 08:01:14;;;;;;;7.45;3.08;;;;;;;14.12;59.78;96683.72;2122967;27;20624;-66
2022/09/23 08:02:15;;;;;;;5.95;3.00;;;;;;;14.63;58.00;96683.31;2112285;27;20580;-66
2022/09/23 08:03:17;;;;;;;5.30;2.95;;;;;;;14.84;57.25;96681.22;2106929;28;20817;-66
2022/09/23 08:04:24;;;;;;;13.23;3.53;;;;;;;14.98;57.35;96682.13;2106265;28;20202;-66
2022/09/23 08:05:26;;;;;;;4.13;2.50;;;;;;;15.16;57.50;96680.13;2108095;28;20759;-66
2022/09/23 08:10:46;;;;;;;3.97;2.50;;;;;;;15.59;55.84;96684.47;2104026;27;20558;-66
2022/09/23 08:11:51;;;;;;;6.03;2.67;;;;;;;15.83;55.54;96687.34;2094792;28;20226;-66
2022/09/23 08:12:53;;;;;;;8.82;3.35;;;;;;;15.96;55.76;96688.22;2085396;28;20291;-66
2022/09/23 08:13:55;;;;;;;5.97;2.65;;;;;;;16.19;54.27;96692.91;2083940;28;21064;-66
2022/09/23 08:14:58;;;;;;;9.52;2.80;;;;;;;15.47;55.64;96694.00;2076314;28;20262;-66
2022/09/23 08:16:00;;;;;;;7.22;2.60;;;;;;;16.12;54.07;96692.47;2084534;28;20257;-66
2022/09/23 08:17:05;;;;;;;4.30;2.35;;;;;;;16.36;53.21;96683.88;2084105;28;20240;-66
2022/09/23 08:18:06;;;;;;;4.18;2.00;;;;;;;16.18;53.15;96678.91;2075098;28;20656;-66
2022/09/23 08:19:08;;;;;;;6.75;2.10;;;;;;;16.36;52.96;96697.06;2074367;28;20554;-66
2022/09/23 08:27:00;;;;;;;4.57;2.40;;;;;;;16.52;51.87;96683.69;2070150;28;20174;-66
2022/09/23 08:28:02;;;;;;;6.03;2.10;;;;;;;16.94;52.14;96692.28;2066859;28;20241;-67
2022/09/23 08:29:04;;;;;;;5.47;2.38;;;;;;;17.07;51.45;96684.34;2065757;28;20198;-66
2022/09/23 08:30:06;;;;;;;12.63;2.20;;;;;;;16.99;51.29;96650.59;2059064;28;20308;-66
2022/09/23 08:31:07;;;;;;;4.10;2.15;;;;;;;17.72;50.27;96688.47;2066822;28;20326;-66
2022/09/23 08:39:05;;;;;;;4.65;1.80;;;;;;;17.55;51.41;96694.16;2066849;28;20290;-66
2022/09/23 08:40:07;;;;;;;6.07;2.13;;;;;;;17.72;50.38;96688.47;2056887;28;20371;-66
2022/09/23 08:41:24;;;;;;;4.47;1.60;;;;;;;18.08;49.80;96689.41;2071353;28;20592;-66
2022/09/23 08:42:31;;;;;;;3.67;1.95;;;;;;;18.50;49.19;96685.44;2066319;28;20257;-66
2022/09/23 08:43:35;;;;;;;6.15;2.25;;;;;;;17.95;49.64;96670.97;2073042;28;20312;-67
2022/09/23 08:44:58;;;;;;;4.15;1.75;;;;;;;18.38;48.98;96695.97;2063831;28;20277;-67
2022/09/23 08:46:04;;;;;;;3.55;2.38;;;;;;;17.71;50.22;96685.94;2070443;28;20292;-67
2022/09/23 08:47:14;;;;;;;4.95;1.80;;;;;;;17.75;50.97;96684.75;2069193;28;20272;-67
2022/09/23 08:48:26;;;;;;;3.85;2.15;;;;;;;17.50;50.10;96680.44;2066310;28;20281;-67
2022/09/23 08:49:39;;;;;;;4.30;2.10;;;;;;;17.86;50.43;96689.28;2065373;28;20322;-67
2022/09/23 08:50:45;;;;;;;8.07;3.13;;;;;;;18.27;49.71;96688.00;2066533;28;20659;-67
2022/09/23 08:51:47;;;;;;;8.60;2.10;;;;;;;18.53;48.95;96686.03;2066709;28;20198;-67
2022/09/23 08:53:02;;;;;;;9.15;2.30;;;;;;;18.66;48.48;96688.59;2064683;28;20264;-67
2022/09/23 08:54:11;;;;;;;6.43;2.67;;;;;;;18.63;48.96;96686.19;2065197;28;20277;-67
2022/09/23 08:55:14;;;;;;;4.50;1.80;;;;;;;18.92;48.14;96681.31;2060384;28;20300;-68
2022/09/23 08:56:21;;;;;;;9.30;2.60;;;;;;;18.41;48.27;96685.19;2072359;28;20724;-67
2022/09/23 08:57:33;;;;;;;3.38;1.80;;;;;;;18.96;48.11;96681.06;2065759;28;20202;-67
2022/09/23 08:59:10;;;;;;;9.25;2.65;;;;;;;17.75;50.26;96684.75;2073382;28;20288;-67
2022/09/23 09:00:18;;;;;;;3.40;1.63;;;;;;;17.84;51.05;96676.19;2063720;28;20312;-67
2022/09/23 09:01:43;;;;;;;9.65;2.72;;;;;;;18.09;50.27;96690.22;2070161;28;20285;-67
2022/09/23 09:08:05;;;;;;;4.38;2.00;;;;;;;19.25;47.59;96692.03;2069777;28;20210;-67
2022/09/23 09:09:18;;;;;;;7.28;2.40;;;;;;;19.73;46.70;96689.06;2062890;28;20244;-67
2022/09/23 09:10:24;;;;;;;4.65;2.40;;;;;;;19.75;46.60;96684.47;2059617;28;20257;-67
2022/09/23 09:11:34;;;;;;;3.50;2.38;;;;;;;19.90;46.16;96684.22;2073666;28;20285;-67
2022/09/23 09:12:41;;;;;;;7.30;2.33;;;;;;;20.00;45.86;96687.78;2066174;28;20348;-67
2022/09/23 09:13:59;;;;;;;7.68;2.10;;;;;;;19.87;45.87;96680.00;2066467;28;20285;-67
2022/09/23 09:20:09;;;;;;;2.42;1.60;;;;;;;20.93;43.50;96672.09;2066907;28;20213;-67
2022/09/23 09:21:12;;;;;;;5.35;2.08;;;;;;;21.40;43.36;96678.72;2064222;28;20250;-67
2022/09/23 09:22:20;;;;;;;5.60;2.00;;;;;;;21.08;43.22;96669.94;2058568;28;20210;-67
2022/09/23 09:23:21;;;;;;;5.38;1.70;;;;;;;21.00;43.72;96678.56;2061086;28;20233;-67
2022/09/23 09:24:33;;;;;;;7.82;2.08;;;;;;;19.52;46.38;96674.91;2064598;28;20245;-67
2022/09/23 09:25:51;;;;;;;7.00;2.25;;;;;;;18.51;48.66;96671.25;2049747;28;20668;-67
2022/09/23 09:32:09;;;;;;;6.35;1.88;;;;;;;21.99;42.88;96675.22;2061326;28;20227;-67
2022/09/23 09:33:23;;;;;;;4.82;1.63;;;;;;;22.60;41.15;96669.72;2060299;28;20286;-67
2022/09/23 09:34:37;;;;;;;6.68;2.10;;;;;;;22.63;41.08;96635.69;2061540;28;20285;-67
2022/09/23 09:35:56;;;;;;;4.65;2.60;;;;;;;23.13;40.28;96670.97;2060378;28;20761;-67
2022/09/23 09:37:04;;;;;;;3.15;2.00;;;;;;;22.30;41.59;96666.25;2060935;28;20294;-67
2022/09/23 09:38:07;;;;;;;6.25;2.20;;;;;;;23.03;40.66;96670.16;2060421;28;20199;-67
2022/09/23 09:39:12;;;;;;;5.05;2.03;;;;;;;23.52;39.39;96669.97;2060575;28;20326;-67
2022/09/23 09:40:18;;;;;;;5.38;1.83;;;;;;;23.99;38.83;96666.34;2056892;28;20308;-67
2022/09/23 09:41:23;;;;;;;4.25;1.70;;;;;;;24.09;38.43;96651.91;2069014;28;20196;-67
2022/09/23 09:42:36;;;;;;;4.25;1.88;;;;;;;24.26;38.16;96668.91;2058326;28;20199;-67
2022/09/23 09:43:39;;;;;;;3.45;1.38;;;;;;;24.19;38.25;96661.66;2062069;28;20288;-67
2022/09/23 09:50:02;;;;;;;4.60;2.17;;;;;;;23.94;37.82;96653.44;2059154;28;20579;-67
2022/09/23 09:51:19;;;;;;;5.07;1.92;;;;;;;24.33;37.51;96661.13;2059544;28;20298;-67
2022/09/23 09:52:31;;;;;;;6.28;2.25;;;;;;;22.05;40.04;96655.19;2059828;28;20267;-67
2022/09/23 09:53:34;;;;;;;6.90;2.67;;;;;;;22.64;40.63;96657.84;2062257;28;20238;-66
2022/09/23 09:54:39;;;;;;;8.13;2.47;;;;;;;23.96;38.13;96654.16;2047355;28;20257;-67
2022/09/23 09:55:40;;;;;;;3.95;1.88;;;;;;;24.91;36.37;96625.00;2057241;28;20237;-67
2022/09/23 09:56:43;;;;;;;5.10;2.13;;;;;;;25.71;35.42;96631.84;2059288;28;20232;-67
2022/09/23 09:57:53;;;;;;;3.15;2.03;;;;;;;25.97;35.33;96651.44;2058428;28;20194;-67
2022/09/23 09:58:59;;;;;;;5.57;2.10;;;;;;;25.55;35.57;96654.00;2060299;28;20250;-67
2022/09/23 10:00:24;;;;;;;5.32;2.42;;;;;;;24.29;38.00;96646.44;2054902;28;20253;-67
2022/09/23 10:01:27;;;;;;;4.15;2.08;;;;;;;25.74;35.80;96654.75;2067278;28;20396;-67
2022/09/23 10:02:32;;;;;;;4.25;2.22;;;;;;;26.20;34.57;96646.28;2058021;28;20210;-67
2022/09/23 10:03:42;;;;;;;7.82;2.20;;;;;;;26.33;34.10;96630.56;2057835;28;20195;-67
2022/09/23 10:04:44;;;;;;;3.33;2.08;;;;;;;26.20;34.54;96643.63;2051121;28;20257;-67
2022/09/23 10:05:51;;;;;;;6.07;1.75;;;;;;;26.41;34.38;96656.50;2061330;28;20200;-67
2022/09/23 10:07:14;;;;;;;5.95;2.13;;;;;;;27.23;33.95;96657.38;2059491;28;20319;-67
2022/09/23 10:08:31;;;;;;;6.82;2.15;;;;;;;25.70;35.01;96651.53;2061245;28;20203;-67
2022/09/23 10:09:35;;;;;;;5.32;2.03;;;;;;;24.68;37.17;96654.06;2060371;28;20240;-67
2022/09/23 10:10:37;;;;;;;8.55;2.00;;;;;;;25.56;36.09;96644.13;2056357;28;20799;-67
2022/09/23 10:11:39;;;;;;;7.90;2.38;;;;;;;26.68;34.13;96651.78;2061937;28;20282;-67
2022/09/23 10:12:45;;;;;;;6.15;2.20;;;;;;;27.48;32.49;96652.78;2060576;28;20217;-67
2022/09/23 10:14:08;;;;;;;4.78;2.00;;;;;;;27.30;33.29;96652.97;2059684;28;20213;-67
2022/09/23 10:15:29;;;;;;;3.47;2.00;;;;;;;26.98;33.16;96652.06;2049653;28;20262;-67
2022/09/23 10:16:33;;;;;;;6.32;2.17;;;;;;;25.31;35.51;96620.00;2064990;28;20549;-67
2022/09/23 10:17:35;;;;;;;3.95;2.47;;;;;;;25.52;34.93;96651.69;2062009;28;20206;-67
2022/09/23 10:18:47;;;;;;;3.70;1.80;;;;;;;26.66;33.45;96649.25;2061011;28;20348;-67
2022/09/23 10:19:59;;;;;;;7.05;1.77;;;;;;;27.27;32.84;96647.97;2051864;28;20229;-67
2022/09/23 10:26:04;;;;;;;3.50;2.03;;;;;;;28.25;31.56;96643.09;2057145;28;20668;-67
2022/09/23 10:27:08;;;;;;;12.73;2.20;;;;;;;28.21;30.45;96628.38;2062972;28;20214;-67
2022/09/23 10:28:30;;;;;;;3.85;2.03;;;;;;;28.18;31.06;96637.59;2058856;28;20207;-67
2022/09/23 10:29:37;;;;;;;3.50;1.80;;;;;;;27.61;31.19;96638.78;2060488;28;20615;-68
2022/09/23 10:30:39;;;;;;;5.68;1.75;;;;;;;27.99;31.35;96631.66;2058566;28;20246;-67
2022/09/23 10:31:40;;;;;;;5.10;2.15;;;;;;;27.50;31.86;96635.50;2059839;28;20710;-67
2022/09/23 10:38:02;;;;;;;5.78;2.53;;;;;;;25.59;35.07;96636.63;2062272;28;20187;-67
2022/09/23 10:46:50;;;;;;;2.10;1.70;;;;;;;24.82;35.76;96628.63;2067250;28;20627;-66
2022/09/23 10:48:12;;;;;;;5.97;2.30;;;;;;;23.58;38.27;96634.72;2060767;28;20202;-67
2022/09/23 10:49:26;;;;;;;8.90;2.15;;;;;;;24.33;37.07;96622.94;2058858;28;20199;-66
2022/09/23 10:50:37;;;;;;;4.85;2.03;;;;;;;26.27;34.82;96628.59;2053383;28;20577;-66
2022/09/23 10:51:47;;;;;;;3.97;2.03;;;;;;;27.20;33.08;96623.72;2067074;28;20543;-67
2022/09/23 10:53:20;;;;;;;4.25;1.92;;;;;;;25.92;34.89;96617.97;2059714;28;20620;-67
2022/09/23 10:54:40;;;;;;;5.78;1.80;;;;;;;25.93;35.56;96621.50;2060068;28;20214;-67
2022/09/23 10:55:59;;;;;;;4.53;2.10;;;;;;;26.49;34.01;96613.66;2056107;28;20298;-67
2022/09/23 10:58:46;;;;;;;5.60;2.47;;;;;;;26.80;33.35;96609.44;2059124;28;20243;-67
2022/09/23 10:59:56;;;;;;;4.32;2.22;;;;;;;26.96;33.16;96619.28;2051115;28;20281;-67
2022/09/23 11:01:24;;;;;;;10.90;2.45;;;;;;;25.38;35.88;96613.03;2066870;28;20237;-67
2022/09/23 11:02:35;;;;;;;6.40;2.35;;;;;;;26.52;34.07;96615.16;2056100;28;20210;-67
2022/09/23 11:04:03;;;;;;;7.28;1.90;;;;;;;26.55;34.46;96615.66;2057937;28;20203;-67
2022/09/23 11:05:18;;;;;;;4.70;1.83;;;;;;;26.97;33.07;96596.81;2037187;29;20437;-67
2022/09/23 11:06:42;;;;;;;3.47;1.73;;;;;;;26.87;33.52;96608.59;2064143;28;20289;-67
2022/09/23 11:08:20;;;;;;;4.75;2.00;;;;;;;25.07;36.85;96594.84;2059198;28;20293;-67
2022/09/23 11:09:39;;;;;;;7.13;2.00;;;;;;;26.33;35.77;96601.13;2059078;28;20282;-67
2022/09/23 11:10:53;;;;;;;11.98;2.30;;;;;;;27.57;34.54;96605.31;2056092;28;20249;-67
2022/09/23 11:12:20;;;;;;;3.00;1.75;;;;;;;27.46;35.00;96604.66;2058436;28;20217;-67
2022/09/23 11:13:29;;;;;;;4.15;1.70;;;;;;;28.14;33.40;96583.44;2057320;28;20294;-67
2022/09/23 11:14:57;;;;;;;6.25;2.17;;;;;;;27.07;33.15;96604.66;2057641;28;20227;-67
2022/09/23 11:16:13;;;;;;;5.35;2.20;;;;;;;26.45;35.54;96603.44;2058719;28;20299;-67
2022/09/23 11:17:32;;;;;;;3.63;2.00;;;;;;;25.21;35.73;96600.59;2059451;28;20240;-67
2022/09/23 11:18:37;;;;;;;5.60;2.00;;;;;;;24.52;37.77;96603.22;2059834;28;20788;-67
2022/09/23 11:20:01;;;;;;;7.95;2.03;;;;;;;25.29;36.78;96600.59;2058854;28;20198;-67
2022/09/23 11:26:09;;;;;;;11.23;2.33;;;;;;;26.59;35.58;96596.56;2057342;28;20222;-67
2022/09/23 11:27:26;;;;;;;7.10;2.00;;;;;;;26.70;35.91;96598.88;2063052;28;20228;-67
2022/09/23 11:28:46;;;;;;;2.78;1.85;;;;;;;28.02;34.10;96596.44;2061314;28;20376;-67
2022/09/23 11:30:05;;;;;;;5.95;2.08;;;;;;;28.70;32.71;96590.34;2051429;28;20203;-67
2022/09/23 11:31:32;;;;;;;7.90;2.00;;;;;;;29.44;31.92;96596.69;2063398;28;20255;-67
2022/09/23 11:33:02;;;;;;;4.68;2.17;;;;;;;29.52;32.20;96595.75;2073339;28;20193;-67
2022/09/23 11:34:50;;;;;;;6.18;2.33;;;;;;;29.03;32.66;96592.66;2065931;28;20234;-67
2022/09/23 11:36:05;;;;;;;3.78;1.73;;;;;;;29.54;31.33;96585.66;2050765;28;20226;-66
2022/09/23 11:37:39;;;;;;;4.35;2.05;;;;;;;28.99;32.84;96591.38;2059712;28;20195;-66
2022/09/23 11:38:45;;;;;;;7.90;2.20;;;;;;;28.89;33.48;96593.50;2053005;28;20207;-66
2022/09/23 11:39:55;;;;;;;14.43;8.30;;;;;;;28.97;34.42;96588.84;2051039;28;20230;-67
2022/09/23 11:41:17;;;;;;;38.08;27.10;;;;;;;29.71;32.80;96587.09;2066654;28;20684;-67
2022/09/23 11:42:27;;;;;;;34.80;25.05;;;;;;;30.04;32.73;96578.53;2062523;28;20227;-67
2022/09/23 11:43:35;;;;;;;10.07;5.97;;;;;;;30.36;31.85;96581.69;2058678;28;20269;-68
2022/09/23 11:44:46;;;;;;;5.00;2.03;;;;;;;30.80;31.35;96593.19;2049353;28;20253;-68
2022/09/23 11:46:02;;;;;;;6.57;2.17;;;;;;;29.56;32.06;96584.44;2066930;28;20768;-68
2022/09/23 11:47:12;;;;;;;6.40;1.77;;;;;;;30.15;31.40;96576.34;2062572;28;20206;-67
2022/09/23 11:48:46;;;;;;;4.10;1.95;;;;;;;30.40;31.28;96582.13;2060096;28;20293;-67
2022/09/23 11:50:16;;;;;;;3.17;1.55;;;;;;;29.03;33.33;96578.38;2040198;28;20212;-68
2022/09/23 11:51:25;;;;;;;6.03;2.20;;;;;;;27.64;33.83;96571.38;2065962;28;20297;-67
2022/09/23 11:52:35;;;;;;;3.05;1.90;;;;;;;27.98;34.38;96584.38;2059683;28;20301;-67
2022/09/23 11:53:44;;;;;;;7.60;2.00;;;;;;;29.14;32.97;96577.88;2059156;28;20670;-68
2022/09/23 11:54:50;;;;;;;7.32;1.80;;;;;;;27.58;34.77;96577.47;2058398;28;20286;-67
2022/09/23 12:02:48;;;;;;;12.30;1.77;;;;;;;28.95;32.46;96574.78;2063687;28;20198;-68
2022/09/23 12:04:11;;;;;;;5.97;2.30;;;;;;;28.67;33.50;96572.75;2059505;28;20210;-67
2022/09/23 12:05:46;;;;;;;6.45;1.92;;;;;;;29.44;32.30;96573.31;2057223;28;20237;-67
2022/09/23 12:07:13;;;;;;;3.42;2.25;;;;;;;27.64;34.91;96563.34;2058960;28;20245;-67
2022/09/23 12:08:31;;;;;;;8.88;2.03;;;;;;;27.24;35.60;96578.66;2058392;28;20194;-67
2022/09/23 12:09:58;;;;;;;6.80;2.20;;;;;;;26.94;36.05;96575.75;2062095;28;20198;-67
2022/09/23 12:11:30;;;;;;;6.70;2.17;;;;;;;26.87;36.55;96575.63;2058140;28;20245;-68
2022/09/23 12:12:37;;;;;;;6.47;2.13;;;;;;;26.23;37.69;96573.69;2057015;28;20226;-67
2022/09/23 12:13:51;;;;;;;8.15;1.90;;;;;;;26.15;36.95;96569.19;2058795;28;20357;-67
2022/09/23 12:15:27;;;;;;;5.45;1.90;;;;;;;25.84;37.21;96572.53;2049544;28;20638;-67
2022/09/23 12:16:47;;;;;;;5.40;1.92;;;;;;;25.66;38.49;96569.16;2060335;28;20691;-67
2022/09/23 12:17:58;;;;;;;7.20;2.53;;;;;;;25.41;38.65;96566.44;2059997;28;20211;-67
2022/09/23 12:19:42;;;;;;;5.80;2.15;;;;;;;25.81;38.64;96569.34;2059502;28;20218;-67
2022/09/23 12:20:47;;;;;;;5.90;2.05;;;;;;;24.57;38.57;96567.06;2054011;28;20379;-67
2022/09/23 12:22:06;;;;;;;7.22;2.72;;;;;;;24.28;40.02;96533.53;2055254;28;20199;-67
2022/09/23 12:23:14;;;;;;;7.72;2.25;;;;;;;25.05;39.14;96529.25;2058020;28;20264;-67
2022/09/23 12:24:26;;;;;;;8.52;1.90;;;;;;;25.30;39.27;96558.72;2060431;28;20334;-67
2022/09/23 12:25:40;;;;;;;6.28;1.88;;;;;;;25.50;38.57;96559.28;2056164;28;20322;-67
2022/09/23 12:26:47;;;;;;;9.57;2.70;;;;;;;25.77;37.48;96566.16;2065627;28;20672;-67
2022/09/23 12:27:54;;;;;;;4.80;2.00;;;;;;;26.44;36.38;96570.50;2055678;28;20311;-68
2022/09/23 12:29:00;;;;;;;5.28;2.15;;;;;;;26.76;36.33;96559.91;2059548;28;20254;-68
2022/09/23 12:30:17;;;;;;;4.22;2.13;;;;;;;26.62;35.84;96556.09;2047259;28;20575;-68
2022/09/23 12:31:29;;;;;;;3.72;2.10;;;;;;;23.53;40.23;96555.25;2066428;28;20232;-68
2022/09/23 12:39:14;;;;;;;4.40;2.50;;;;;;;23.55;40.29;96558.59;2059122;28;20234;-68
2022/09/23 12:40:34;;;;;;;4.22;2.50;;;;;;;23.53;40.70;96557.91;2053185;28;20672;-68
2022/09/23 12:41:39;;;;;;;6.18;2.70;;;;;;;24.50;39.50;96536.66;2057997;28;20719;-68
2022/09/23 12:42:43;;;;;;;7.25;2.78;;;;;;;24.93;39.12;96548.22;2058851;28;20286;-68
2022/09/23 12:57:11;;;;;;;7.30;3.00;;;;;;;23.62;39.95;96546.34;2061842;28;20222;-68
2022/09/23 12:58:37;;;;;;;8.60;2.70;;;;;;;23.44;40.52;96541.00;2059989;28;20220;-68
2022/09/23 12:59:50;;;;;;;10.88;3.28;;;;;;;23.26;41.94;96540.16;2058323;28;20199;-69
2022/09/23 13:01:13;;;;;;;93.32;56.15;;;;;;;24.49;40.14;96542.16;2060592;28;20294;-67
2022/09/23 13:02:22;;;;;;;14.32;4.78;;;;;;;24.87;38.76;96538.19;2059538;28;20884;-69
2022/09/23 13:06:38;;;;;;;6.65;3.25;;;;;;;26.36;37.17;96541.91;2069036;28;20233;-68
2022/09/23 13:07:46;;;;;;;4.90;2.58;;;;;;;26.33;36.17;96536.06;2059025;28;20293;-68
2022/09/23 13:08:48;;;;;;;4.43;2.42;;;;;;;26.55;36.24;96543.38;2061502;28;20297;-69
2022/09/23 13:09:54;;;;;;;7.00;2.50;;;;;;;24.90;37.87;96535.22;2052791;28;20234;-68
2022/09/23 13:11:01;;;;;;;4.75;2.70;;;;;;;24.69;39.17;96526.78;2075180;28;20201;-68
2022/09/23 13:12:09;;;;;;;4.80;2.33;;;;;;;24.52;39.45;96521.34;2071550;28;20246;-68
2022/09/23 13:13:31;;;;;;;8.27;3.67;;;;;;;24.86;38.77;96539.22;2060370;28;20238;-68
2022/09/23 13:14:34;;;;;;;6.00;3.30;;;;;;;24.28;39.72;96533.53;2060311;28;20310;-68
2022/09/23 13:15:35;;;;;;;4.95;2.33;;;;;;;24.54;39.44;96534.50;2059177;28;20951;-68
2022/09/23 13:16:43;;;;;;;5.95;2.15;;;;;;;24.04;40.68;96534.22;2060939;28;20219;-68
2022/09/23 13:17:44;;;;;;;4.13;2.60;;;;;;;22.51;43.29;96533.06;2066888;28;20744;-68
2022/09/23 13:18:56;;;;;;;5.72;2.65;;;;;;;22.87;42.42;96535.03;2062340;28;20234;-68
2022/09/23 13:20:37;;;;;;;6.03;2.83;;;;;;;23.08;43.30;96532.94;2049547;28;20257;-68
2022/09/23 13:21:41;;;;;;;5.35;2.65;;;;;;;22.79;42.51;96541.09;2066286;28;20241;-69
2022/09/23 13:22:50;;;;;;;13.77;3.08;;;;;;;23.25;42.33;96534.00;2057008;28;20662;-69
2022/09/23 13:24:29;;;;;;;6.03;3.00;;;;;;;23.61;42.07;96533.16;2058609;28;20333;-68
2022/09/23 13:25:40;;;;;;;6.68;3.15;;;;;;;24.03;41.30;96534.38;2050537;28;20235;-68
2022/09/23 13:27:00;;;;;;;7.85;3.20;;;;;;;23.75;41.00;96535.28;2059610;28;20294;-69
2022/09/23 13:28:12;;;;;;;13.15;3.15;;;;;;;24.16;40.69;96516.09;2060726;28;20229;-68
2022/09/23 13:29:26;;;;;;;7.95;2.55;;;;;;;24.58;40.47;96526.03;2060813;28;20282;-68
2022/09/23 13:30:28;;;;;;;16.85;3.30;;;;;;;25.12;39.14;96537.47;2058897;28;20227;-68
2022/09/23 13:31:29;;;;;;;6.47;2.60;;;;;;;25.21;38.69;96531.97;2060571;28;20210;-68
2022/09/23 13:32:40;;;;;;;7.47;2.80;;;;;;;25.00;38.54;96524.41;2057127;28;20239;-68
2022/09/23 13:33:47;;;;;;;8.40;3.35;;;;;;;24.03;41.32;96518.38;2067561;28;20257;-68
2022/09/23 13:34:57;;;;;;;5.32;2.42;;;;;;;24.67;39.87;96521.63;2057623;28;20199;-68
2022/09/23 13:36:02;;;;;;;4.50;2.40;;;;;;;24.43;40.04;96522.28;2067936;28;20244;-68
2022/09/23 13:37:30;;;;;;;8.05;2.55;;;;;;;24.74;39.82;96522.63;2064787;28;20297;-68
2022/09/23 13:45:04;;;;;;;7.25;3.10;;;;;;;25.03;39.54;96512.56;2055246;28;20290;-68
2022/09/23 13:46:12;;;;;;;8.13;3.30;;;;;;;24.37;40.34;96506.91;2064497;28;20924;-68
2022/09/23 13:47:15;;;;;;;7.05;2.72;;;;;;;24.31;40.88;96500.38;2060385;28;20210;-68
2022/09/23 13:48:19;;;;;;;4.28;3.38;;;;;;;24.28;40.31;96504.19;2062365;28;20792;-68
2022/09/23 13:56:13;;;;;;;7.68;2.58;;;;;;;24.60;39.58;96502.69;2059922;28;20243;-68
2022/09/23 13:57:32;;;;;;;8.85;2.70;;;;;;;24.81;40.72;96520.16;2060212;28;20323;-68
2022/09/23 13:58:35;;;;;;;5.13;2.97;;;;;;;24.40;40.72;96487.91;2059196;28;20202;-68
2022/09/23 13:59:40;;;;;;;4.47;2.28;;;;;;;24.17;41.46;96504.44;2051256;28;20265;-68
2022/09/23 14:00:42;;;;;;;4.65;2.35;;;;;;;24.38;41.08;96495.22;2059402;28;20235;-68
2022/09/23 14:13:05;;;;;;;6.22;2.30;;;;;;;22.30;43.88;96501.38;2058531;28;20666;-68
2022/09/23 14:14:06;;;;;;;9.60;2.75;;;;;;;22.37;44.99;96504.31;2058140;28;20661;-69
2022/09/23 14:15:13;;;;;;;5.18;2.63;;;;;;;22.45;44.36;96509.75;2052968;28;20252;-69
2022/09/23 14:16:16;;;;;;;6.38;2.60;;;;;;;22.44;44.53;96497.44;2067237;28;20234;-68
2022/09/23 14:17:21;;;;;;;9.10;2.55;;;;;;;22.49;45.03;96495.16;2062567;28;20976;-68
2022/09/23 14:18:31;;;;;;;8.05;2.75;;;;;;;22.64;44.25;96503.50;2060834;28;20617;-68
2022/09/23 14:19:34;;;;;;;3.72;2.30;;;;;;;22.35;44.70;96491.94;2060917;28;20620;-68
2022/09/23 14:20:45;;;;;;;5.60;2.90;;;;;;;22.40;44.64;96470.28;2049237;28;20311;-68
2022/09/23 14:21:52;;;;;;;12.93;2.58;;;;;;;22.47;44.75;96497.13;2067933;28;20198;-68
2022/09/23 14:23:10;;;;;;;5.40;2.47;;;;;;;22.32;44.71;96470.97;2063350;28;20286;-68
2022/09/23 14:24:13;;;;;;;8.90;2.60;;;;;;;22.39;45.68;96494.38;2057890;28;20342;-68
2022/09/23 14:25:18;;;;;;;8.23;2.50;;;;;;;22.37;45.75;96491.84;2056444;28;20634;-68
2022/09/23 14:26:21;;;;;;;4.28;1.92;;;;;;;22.36;44.58;96484.81;2067318;28;20838;-68
2022/09/23 14:27:28;;;;;;;6.25;2.30;;;;;;;21.63;46.56;96483.59;2058307;28;20268;-69
2022/09/23 14:28:30;;;;;;;6.63;2.55;;;;;;;21.67;47.11;96489.47;2059565;28;20238;-69
2022/09/23 14:29:35;;;;;;;18.13;3.20;;;;;;;21.67;46.88;96481.50;2058245;28;20222;-69
2022/09/23 14:30:37;;;;;;;5.15;2.40;;;;;;;21.02;48.29;96485.50;2056357;28;20629;-69
2022/09/23 14:31:40;;;;;;;5.80;3.13;;;;;;;21.59;47.40;96481.38;2058010;28;20215;-69
2022/09/23 14:32:42;;;;;;;4.85;2.78;;;;;;;22.07;46.62;96484.91;2063111;28;20230;-69
2022/09/23 14:33:45;;;;;;;5.80;2.38;;;;;;;22.28;45.04;96482.91;2062125;28;20246;-69
2022/09/23 14:34:59;;;;;;;4.75;2.15;;;;;;;22.01;45.33;96481.00;2052293;28;20269;-69
2022/09/23 14:39:11;;;;;;;8.75;3.20;;;;;;;21.56;45.71;96482.50;2060931;28;20872;-68
2022/09/23 14:40:25;;;;;;;8.30;2.72;;;;;;;22.00;45.03;96472.22;2054243;28;20964;-69
2022/09/23 14:41:26;;;;;;;9.57;2.72;;;;;;;21.74;45.35;96468.47;2067473;28;20292;-69
2022/09/23 14:49:09;;;;;;;4.30;2.58;;;;;;;20.11;48.93;96466.06;2056977;28;20265;-68
2022/09/23 14:51:45;;;;;;;5.70;2.15;;;;;;;21.20;47.20;96469.75;2060568;28;20423;-68
2022/09/23 14:52:50;;;;;;;4.57;2.33;;;;;;;20.54;47.84;96451.72;2060200;28;20310;-69
2022/09/23 14:53:52;;;;;;;5.03;2.15;;;;;;;20.97;47.81;96461.19;2058273;28;20241;-68
2022/09/23 15:00:05;;;;;;;3.90;2.40;;;;;;;21.42;47.36;96461.63;2060181;28;20178;-68
2022/09/23 15:01:26;;;;;;;6.00;2.00;;;;;;;20.83;48.29;96467.72;2059121;28;20762;-69
2022/09/23 15:02:38;;;;;;;7.00;2.10;;;;;;;20.71;48.66;96460.88;2060314;28;20223;-69
2022/09/23 15:03:46;;;;;;;2.58;1.83;;;;;;;20.61;48.24;96463.47;2059552;28;20207;-69
2022/09/23 15:04:47;;;;;;;4.95;2.35;;;;;;;20.23;49.16;96447.28;2058422;28;20202;-69
2022/09/23 15:05:56;;;;;;;6.35;3.00;;;;;;;20.54;48.90;96463.19;2060370;28;20247;-69
2022/09/23 15:07:17;;;;;;;7.93;2.78;;;;;;;20.34;49.21;96430.47;2060968;28;20205;-69
2022/09/23 15:08:26;;;;;;;6.82;2.58;;;;;;;20.66;48.44;96455.94;2061434;28;20285;-69
2022/09/23 15:09:45;;;;;;;5.63;2.10;;;;;;;20.68;49.09;96455.81;2060034;28;20234;-69
2022/09/23 15:10:48;;;;;;;6.60;2.80;;;;;;;19.98;49.79;96453.88;2059013;28;20241;-69
2022/09/23 15:11:59;;;;;;;4.13;2.38;;;;;;;20.30;49.76;96454.72;2061954;28;20285;-69
2022/09/23 15:13:08;;;;;;;4.40;1.92;;;;;;;20.06;50.41;96469.97;2060612;28;20305;-69